Red Lake Falls, Minnesota
Current Conditions -  °F | °C
As of 6:35 PM on Friday 21 Nov 2014 (Local Time) from KTVF Reporting Station
Clear Clear  
Wind Chill: 15°   Ceiling: Unl
Heat Index: 28°   Visibility: 10mi
Dew Point: 25°   Wind: 22mph
Humidity: 86%   Direction: 200°SSW
Pressure: 29.63"   Gusts: 30mph
Location:  47.88°N, 96.27°W
Report Text: KTVF 220035Z AUTO 20019G26KT 10SM CLR M02/M04 A2963 RMK AO1
Loading
Personal Weather Stations






























Interactive Weather Map New forecast layout! Learn more

10-Day Weather Forecast

Advertisements
Track Severe Weather on mobile